This demonstration page uses our WeatherBlox Daily Observations layout. Learn more.

Left ArrowRight Arrow

38.88101, -77.10428

Hourly Observations for July 21, 2016

Temp ( °F °C ) Dew Point ( °F °C ) Humidity (%) Winds ( mph kmh ) Pressure ( in mb ) Visibility ( mi km ) Precip ( " mm )
12:52 am 00:52 Mostly Clear 76 24.4 65 18.3 69 69 Calm 30.18 1022 10 16.0934 0 0
1:52 am 01:52 Mostly Clear 75 23.9 67 19.4 76 76 SSW 6 9 30.18 1022 10 16.0934 0 0
2:52 am 02:52 Clear 74 23.3 66 18.9 76 76 W 3 6 30.18 1022 10 16.0934 0 0
3:52 am 03:52 Clear 74 23.3 66 18.9 76 76 Calm 30.17 1022 10 16.0934 0 0
4:52 am 04:52 Clear 72 22.2 68 20 87 87 Calm 30.16 1021 10 16.0934 0 0
5:52 am 05:52 Mostly Clear 71 21.7 66 18.9 84 84 Calm 30.17 1022 10 16.0934 0 0
6:52 am 06:52 Sunny 74 23.3 67 19.4 79 79 Calm 30.19 1022 10 16.0934 0 0
7:52 am 07:52 Sunny 76 24.4 70 21.1 82 82 ENE 5 7 30.2 1023 10 16.0934 0 0
8:52 am 08:52 Sunny 78 25.6 70 21.1 76 76 VRB 3 6 30.19 1023 10 16.0934 0 0
9:52 am 09:52 Mostly Sunny 81 27.2 68 20 65 65 ESE 3 6 30.19 1022 10 16.0934 0 0
10:52 am 10:52 Mostly Sunny 83 28.3 65 18.3 55 55 S 6 9 30.19 1022 10 16.0934 0 0
11:52 am 11:52 Mostly Sunny 85 29.4 64 17.8 50 50 SSE 6 9 30.17 1022 10 16.0934 0 0
12:52 pm 12:52 Partly Cloudy 87 30.6 63 17.2 45 45 ESE 5 7 30.15 1021 10 16.0934 0 0
1:52 pm 13:52 Partly Cloudy 87 30.6 62 16.7 43 43 S 7 11 30.15 1021 10 16.0934 0 0
2:52 pm 14:52 Partly Cloudy 87 30.6 64 17.8 46 46 S 12 19 30.12 1020 10 16.0934 0 0
3:52 pm 15:52 Partly Cloudy 88 31.1 65 18.3 46 46 S 13 20 30.11 1020 10 16.0934 0 0
4:52 pm 16:52 Mostly Cloudy 89 31.7 66 18.9 47 47 S 13 20 30.1 1019 10 16.0934 0 0
5:52 pm 17:52 Partly Cloudy 88 31.1 66 18.9 48 48 S 14 22 30.08 1019 10 16.0934 0 0
6:52 pm 18:52 Mostly Cloudy 87 30.6 66 18.9 50 50 S 12 19 30.07 1018 10 16.0934 0 0
7:52 pm 19:52 Cloudy 84 28.9 66 18.9 55 55 SSW 13 20 30.07 1018 10 16.0934 0 0
8:52 pm 20:52 Cloudy 82 27.8 66 18.9 58 58 S 9 15 30.09 1019 10 16.0934 0 0
9:52 pm 21:52 Mostly Cloudy 81 27.2 67 19.4 62 62 S 9 15 30.1 1019 10 16.0934 0 0
10:52 pm 22:52 Mostly Cloudy 80 26.7 68 20 67 67 S 9 15 30.1 1019 10 16.0934 0 0

Powered by AerisWeather